Terminal Aerodrome Forecast
Issued by NWS

Home | Current Version | Previous Version | Text Only | Print | Product List | Glossary On
Versions: 1 2 3 4 5 6 7 8 9 10 11 12 13 14 15 16
296
FTUS46 KMTR 022340
TAFOAK
TAF
KOAK 022340Z 0300/0406 33012KT P6SM FEW200
     FM030200 36005KT P6SM FEW200
     FM030600 03003KT P6SM SKC
     FM031900 27006KT P6SM SKC
     FM032100 32006KT P6SM FEW200
     FM040300 29004KT P6SM FEW200=

USA.gov is the U.S. government's official web portal to all federal, state and local government web resources and services.